TimeMST,TemperatureF,Dew PointF,Humidity,Sea Level PressureIn,VisibilityMPH,Wind Direction,Wind SpeedMPH,Gust SpeedMPH,PrecipitationIn,Events,Conditions,WindDirDegrees,DateUTC
12:14 AM,10.0,-3.8,54,30.07,10.0,WNW,8.1,-,N/A,,Clear,300,2012-12-29 07:14:00
12:34 AM,5.5,-5.1,62,30.07,10.0,NW,6.9,-,N/A,,Clear,310,2012-12-29 07:34:00
12:54 AM,5.9,-5.1,61,30.06,10.0,NW,5.8,-,N/A,,Clear,310,2012-12-29 07:54:00
1:14 AM,6.3,-4.9,60,30.06,10.0,NW,6.9,-,N/A,,Clear,320,2012-12-29 08:14:00
1:34 AM,6.1,-5.8,58,30.07,10.0,NW,8.1,-,N/A,,Clear,310,2012-12-29 08:34:00
1:54 AM,6.4,-6.0,57,30.07,10.0,West,3.5,-,N/A,,Clear,270,2012-12-29 08:54:00
2:14 AM,7.7,-6.5,52,30.07,10.0,WNW,5.8,-,N/A,,Clear,300,2012-12-29 09:14:00
2:34 AM,7.2,-6.9,53,30.08,10.0,NW,6.9,-,N/A,,Clear,320,2012-12-29 09:34:00
2:54 AM,4.8,-8.5,54,30.08,10.0,WNW,5.8,-,N/A,,Clear,300,2012-12-29 09:54:00
3:14 AM,4.6,-7.8,57,30.08,10.0,West,4.6,-,N/A,,Clear,280,2012-12-29 10:14:00
3:34 AM,10.6,-8.1,43,30.09,10.0,Calm,Calm,-,N/A,,Clear,0,2012-12-29 10:34:00
3:54 AM,11.7,-8.9,39,30.08,10.0,Calm,Calm,-,N/A,,Clear,0,2012-12-29 10:54:00
4:14 AM,7.2,-8.9,48,30.08,10.0,Calm,Calm,-,N/A,,Clear,0,2012-12-29 11:14:00
4:34 AM,1.2,-9.8,60,30.09,10.0,WNW,4.6,-,N/A,,Clear,290,2012-12-29 11:34:00
4:54 AM,4.5,-8.9,54,30.08,10.0,WNW,4.6,-,N/A,,Clear,300,2012-12-29 11:54:00
5:14 AM,3.0,-8.5,59,30.09,10.0,WNW,6.9,-,N/A,,Clear,300,2012-12-29 12:14:00
5:34 AM,2.1,-8.1,62,30.09,10.0,West,5.8,-,N/A,,Clear,270,2012-12-29 12:34:00
5:54 AM,1.9,-8.0,63,30.10,10.0,WNW,5.8,-,N/A,,Clear,290,2012-12-29 12:54:00
6:14 AM,1.9,-8.7,61,30.10,10.0,West,5.8,-,N/A,,Clear,270,2012-12-29 13:14:00
6:34 AM,1.9,-8.1,63,30.11,10.0,West,6.9,-,N/A,,Clear,270,2012-12-29 13:34:00
6:54 AM,6.4,-6.3,56,30.12,10.0,West,6.9,-,N/A,,Clear,260,2012-12-29 13:54:00
7:14 AM,6.4,-6.3,56,30.12,10.0,West,6.9,-,N/A,,Clear,280,2012-12-29 14:14:00
7:34 AM,5.4,-6.0,60,30.12,10.0,West,6.9,-,N/A,,Clear,280,2012-12-29 14:34:00
7:54 AM,10.8,-3.3,53,30.12,10.0,West,5.8,-,N/A,,Clear,280,2012-12-29 14:54:00
8:14 AM,14.7,-0.0,52,30.12,10.0,West,5.8,-,N/A,,Clear,270,2012-12-29 15:14:00
8:34 AM,20.5,1.6,44,30.14,10.0,West,3.5,-,N/A,,Clear,260,2012-12-29 15:34:00
8:54 AM,23.7,-0.8,35,30.14,10.0,WSW,4.6,-,N/A,,Clear,250,2012-12-29 15:54:00
9:14 AM,25.5,-3.5,28,30.14,10.0,SSW,3.5,-,N/A,,Clear,210,2012-12-29 16:14:00
9:34 AM,27.1,-3.6,26,30.14,10.0,SSW,5.8,-,N/A,,Clear,200,2012-12-29 16:34:00
9:54 AM,28.8,-2.0,27,30.15,10.0,South,6.9,-,N/A,,Clear,190,2012-12-29 16:54:00
10:14 AM,28.4,-2.6,26,30.15,10.0,SSW,8.1,-,N/A,,Clear,200,2012-12-29 17:14:00
10:34 AM,30.6,-2.9,24,30.14,10.0,SSE,5.8,-,N/A,,Clear,160,2012-12-29 17:34:00
10:54 AM,31.3,-5.4,20,30.11,10.0,SSE,6.9,-,N/A,,Clear,160,2012-12-29 17:54:00
11:14 AM,31.5,-4.0,22,30.10,10.0,South,6.9,-,N/A,,Clear,190,2012-12-29 18:14:00
11:34 AM,32.4,-4.2,21,30.10,10.0,South,8.1,-,N/A,,Clear,170,2012-12-29 18:34:00
11:54 AM,32.9,-2.9,22,30.09,10.0,South,11.5,-,N/A,,Clear,180,2012-12-29 18:54:00
12:14 PM,32.0,-3.6,22,30.08,10.0,South,10.4,17.3,N/A,,Clear,190,2012-12-29 19:14:00
12:34 PM,32.0,-3.5,22,30.07,10.0,SSW,12.7,20.7,N/A,,Clear,200,2012-12-29 19:34:00
12:54 PM,33.8,-3.3,20,30.07,10.0,SSW,13.8,-,N/A,,Clear,200,2012-12-29 19:54:00
1:14 PM,33.8,-3.8,20,30.06,10.0,South,13.8,-,N/A,,Clear,190,2012-12-29 20:14:00
1:34 PM,33.6,-4.2,20,30.05,10.0,South,12.7,-,N/A,,Clear,190,2012-12-29 20:34:00
1:54 PM,31.6,-2.6,23,30.05,10.0,South,11.5,-,N/A,,Clear,190,2012-12-29 20:54:00
2:14 PM,33.1,-3.5,21,30.05,10.0,SSW,10.4,-,N/A,,Clear,200,2012-12-29 21:14:00
2:34 PM,33.8,-3.5,20,30.05,10.0,South,10.4,16.1,N/A,,Clear,190,2012-12-29 21:34:00
2:54 PM,31.6,-1.3,24,30.05,10.0,South,10.4,-,N/A,,Clear,180,2012-12-29 21:54:00
3:14 PM,31.8,-0.6,25,30.04,10.0,South,11.5,-,N/A,,Clear,170,2012-12-29 22:14:00
3:34 PM,28.6,0.1,30,30.04,10.0,South,6.9,-,N/A,,Clear,190,2012-12-29 22:34:00
4:14 PM,26.6,1.9,35,30.03,10.0,SSW,4.6,-,N/A,,Clear,200,2012-12-29 23:14:00
4:34 PM,24.3,2.7,39,30.02,10.0,SSW,3.5,-,N/A,,Clear,200,2012-12-29 23:34:00
4:54 PM,22.1,1.8,41,30.02,10.0,SSW,3.5,-,N/A,,Clear,210,2012-12-29 23:54:00
5:14 PM,22.1,1.0,40,30.02,10.0,Calm,Calm,-,N/A,,Clear,0,2012-12-30 00:14:00
5:34 PM,21.4,1.9,43,30.01,10.0,SW,5.8,-,N/A,,Clear,220,2012-12-30 00:34:00
5:54 PM,20.7,1.9,44,30.00,10.0,WSW,5.8,-,N/A,,Clear,240,2012-12-30 00:54:00
6:14 PM,20.1,1.0,44,30.00,10.0,WSW,4.6,-,N/A,,Clear,240,2012-12-30 01:14:00
6:34 PM,18.3,1.2,47,30.00,10.0,West,3.5,-,N/A,,Clear,270,2012-12-30 01:34:00
6:54 PM,15.8,1.4,53,29.99,10.0,West,3.5,-,N/A,,Clear,260,2012-12-30 01:54:00
7:14 PM,18.1,2.3,50,29.98,10.0,SSW,6.9,-,N/A,,Clear,210,2012-12-30 02:14:00
7:54 PM,19.4,1.9,47,29.95,10.0,SW,4.6,-,N/A,,Clear,230,2012-12-30 02:54:00
8:14 PM,19.0,2.3,48,29.93,10.0,SSW,6.9,-,N/A,,Clear,210,2012-12-30 03:14:00
8:34 PM,18.5,2.5,50,29.93,10.0,SW,8.1,-,N/A,,Clear,230,2012-12-30 03:34:00
8:54 PM,20.3,2.8,47,29.92,10.0,SSW,10.4,-,N/A,,Clear,200,2012-12-30 03:54:00
9:14 PM,18.7,2.3,49,29.92,10.0,WSW,9.2,-,N/A,,Clear,250,2012-12-30 04:14:00
9:34 PM,20.1,2.7,47,29.92,10.0,SSW,12.7,-,N/A,,Clear,200,2012-12-30 04:34:00
9:54 PM,19.0,3.2,50,29.91,10.0,SW,9.2,-,N/A,,Clear,230,2012-12-30 04:54:00
10:14 PM,16.5,2.5,54,29.90,10.0,SW,6.9,-,N/A,,Clear,230,2012-12-30 05:14:00
10:34 PM,16.0,2.5,55,29.89,10.0,West,4.6,-,N/A,,Clear,280,2012-12-30 05:34:00
10:54 PM,13.8,2.3,60,29.88,10.0,West,4.6,-,N/A,,Clear,260,2012-12-30 05:54:00
11:14 PM,15.6,0.9,52,29.87,10.0,West,3.5,-,N/A,,Clear,280,2012-12-30 06:14:00
11:34 PM,18.3,-0.2,44,29.86,10.0,SW,3.5,-,N/A,,Clear,220,2012-12-30 06:34:00
11:54 PM,19.2,-0.4,42,29.86,10.0,Calm,Calm,-,N/A,,Clear,0,2012-12-30 06:54:00